createdAt,value
2018-11-07T00:02:15.410Z,97802.81
2018-11-07T00:04:43.019Z,97809.18
2018-11-07T00:07:10.594Z,97810.52
2018-11-07T00:09:38.125Z,97808.52
2018-11-07T00:12:05.727Z,97814.90
2018-11-07T00:14:33.359Z,97819.42
2018-11-07T00:17:00.919Z,97810.21
2018-11-07T00:19:28.472Z,97810.34
2018-11-07T00:21:56.071Z,97812.89
2018-11-07T00:24:23.599Z,97806.68
2018-11-07T00:26:51.164Z,97804.67
2018-11-07T00:29:18.737Z,97800.80
2018-11-07T00:31:46.313Z,97799.80
2018-11-07T00:34:14.657Z,97797.96
2018-11-07T00:36:42.211Z,97797.45
2018-11-07T00:39:10.360Z,97801.48
2018-11-07T00:41:37.877Z,97803.98
2018-11-07T00:44:05.591Z,97801.83
2018-11-07T00:46:33.267Z,97797.27
2018-11-07T00:49:01.091Z,97802.33
2018-11-07T00:51:28.653Z,97806.88
2018-11-07T00:53:56.241Z,97810.23
2018-11-07T00:56:23.931Z,97812.73
2018-11-07T00:58:51.552Z,97807.05
2018-11-07T01:01:19.133Z,97811.92
2018-11-07T01:03:46.723Z,97815.59
2018-11-07T01:06:14.268Z,97814.44
2018-11-07T01:08:41.933Z,97812.91
2018-11-07T01:11:09.554Z,97812.94
2018-11-07T01:13:37.435Z,97819.97
2018-11-07T01:16:05.159Z,97823.15
2018-11-07T01:18:32.687Z,97814.28
2018-11-07T01:21:00.225Z,97807.55
2018-11-07T01:23:27.753Z,97810.09
2018-11-07T01:25:55.310Z,97801.53
2018-11-07T01:28:22.971Z,97807.06
2018-11-07T01:30:51.501Z,97813.30
2018-11-07T01:33:19.078Z,97813.30
2018-11-07T01:35:46.628Z,97807.58
2018-11-07T01:38:14.263Z,97808.77
2018-11-07T01:40:41.845Z,97808.77
2018-11-07T01:43:09.440Z,97804.88
2018-11-07T01:45:38.046Z,97802.19
2018-11-07T01:48:05.559Z,97795.49
2018-11-07T01:50:33.215Z,97792.49
2018-11-07T01:53:00.791Z,97784.25
2018-11-07T01:55:28.401Z,97785.09
2018-11-07T01:57:55.961Z,97790.30
2018-11-07T02:00:23.702Z,97789.28
2018-11-07T02:02:51.263Z,97782.22
2018-11-07T02:05:18.855Z,97777.02
2018-11-07T02:07:46.447Z,97786.41
2018-11-07T02:10:15.071Z,97778.53
2018-11-07T02:12:42.637Z,97772.69
2018-11-07T02:15:13.643Z,97773.69
2018-11-07T02:17:41.304Z,97772.03
2018-11-07T02:20:09.535Z,97765.47
2018-11-07T02:22:37.069Z,97757.25
2018-11-07T02:25:05.021Z,97763.13
2018-11-07T02:27:32.616Z,97757.94
2018-11-07T02:30:00.183Z,97755.91
2018-11-07T02:32:27.778Z,97753.38
2018-11-07T02:34:55.319Z,97753.56
2018-11-07T02:37:23.908Z,97761.13
2018-11-07T02:39:51.504Z,97768.34
2018-11-07T02:42:19.110Z,97771.00
2018-11-07T02:44:47.708Z,97773.69
2018-11-07T02:47:15.282Z,97772.88
2018-11-07T02:49:42.991Z,97769.00
2018-11-07T02:52:10.533Z,97771.20
2018-11-07T02:54:38.088Z,97775.39
2018-11-07T02:57:05.702Z,97766.83
2018-11-07T02:59:34.294Z,97772.70
2018-11-07T03:02:01.842Z,97774.58
2018-11-07T03:04:29.453Z,97778.09
2018-11-07T03:06:57.143Z,97780.43
2018-11-07T03:09:24.858Z,97787.02
2018-11-07T03:11:53.400Z,97786.81
2018-11-07T03:14:20.962Z,97783.12
2018-11-07T03:16:48.521Z,97780.96
2018-11-07T03:19:16.121Z,97781.28
2018-11-07T03:21:43.743Z,97772.23
2018-11-07T03:24:11.282Z,97765.35
2018-11-07T03:26:38.918Z,97767.87
2018-11-07T03:29:06.441Z,97768.37
2018-11-07T03:31:34.835Z,97774.77
2018-11-07T03:34:02.515Z,97776.11
2018-11-07T03:36:30.184Z,97779.27
2018-11-07T03:38:57.715Z,97773.72
2018-11-07T03:41:25.283Z,97773.92
2018-11-07T03:43:52.828Z,97776.94
2018-11-07T03:46:20.508Z,97777.79
2018-11-07T03:48:48.222Z,97778.11
2018-11-07T03:51:16.943Z,97789.53
2018-11-07T03:53:44.494Z,97790.86
2018-11-07T03:56:12.102Z,97795.92
2018-11-07T03:58:39.620Z,97792.39
2018-11-07T04:01:07.624Z,97787.19
2018-11-07T04:03:35.182Z,97780.80
2018-11-07T04:06:02.782Z,97786.52
2018-11-07T04:08:32.347Z,97792.55
2018-11-07T04:10:59.913Z,97790.37
2018-11-07T04:13:27.459Z,97780.45
2018-11-07T04:15:55.533Z,97772.25
2018-11-07T04:18:25.152Z,97774.09
2018-11-07T04:20:52.745Z,97777.61
2018-11-07T04:23:20.277Z,97780.31
2018-11-07T04:25:47.831Z,97781.66
2018-11-07T04:28:15.386Z,97780.11
2018-11-07T04:30:42.975Z,97776.95
2018-11-07T04:33:10.528Z,97777.42
2018-11-07T04:35:38.093Z,97773.05
2018-11-07T04:38:05.819Z,97770.53
2018-11-07T04:40:33.435Z,97779.62
2018-11-07T04:43:01.009Z,97774.10
2018-11-07T04:45:28.676Z,97769.23
2018-11-07T04:47:56.264Z,97772.06
2018-11-07T04:50:23.810Z,97775.94
2018-11-07T04:52:51.381Z,97779.80
2018-11-07T04:55:19.043Z,97785.83
2018-11-07T04:57:46.569Z,97781.45
2018-11-07T05:00:14.170Z,97779.81
2018-11-07T05:02:42.323Z,97778.59
2018-11-07T05:05:09.964Z,97778.27
2018-11-07T05:07:37.704Z,97779.78
2018-11-07T05:10:05.961Z,97773.05
2018-11-07T05:12:33.521Z,97769.71
2018-11-07T05:15:01.104Z,97777.42
2018-11-07T05:17:28.696Z,97787.34
2018-11-07T05:19:57.253Z,97779.78
2018-11-07T05:22:24.810Z,97773.59
2018-11-07T05:24:52.384Z,97777.30
2018-11-07T05:27:19.933Z,97785.35
2018-11-07T05:29:47.534Z,97790.54
2018-11-07T05:32:19.723Z,97786.34
2018-11-07T05:34:47.267Z,97785.31
2018-11-07T05:37:14.822Z,97784.31
2018-11-07T05:39:42.429Z,97777.44
2018-11-07T05:42:09.971Z,97786.84
2018-11-07T05:44:37.514Z,97784.98
2018-11-07T05:47:05.230Z,97791.22
2018-11-07T05:49:32.940Z,97791.22
2018-11-07T05:52:00.556Z,97785.35
2018-11-07T05:54:28.153Z,97784.16
2018-11-07T05:56:57.760Z,97790.20
2018-11-07T05:59:25.328Z,97794.23
2018-11-07T06:01:52.888Z,97793.57
2018-11-07T06:04:20.535Z,97797.59
2018-11-07T06:09:33.476Z,97800.59
2018-11-07T06:12:01.069Z,97802.28
2018-11-07T06:14:28.659Z,97796.73
2018-11-07T06:16:56.226Z,97792.88
2018-11-07T06:19:23.803Z,97788.04
2018-11-07T06:21:51.371Z,97792.73
2018-11-07T06:24:19.107Z,97806.30
2018-11-07T06:26:46.525Z,97803.44
2018-11-07T06:29:14.097Z,97805.31
2018-11-07T06:31:41.635Z,97816.72
2018-11-07T06:34:09.191Z,97813.53
2018-11-07T06:36:36.764Z,97814.34
2018-11-07T06:39:06.102Z,97817.03
2018-11-07T06:41:33.645Z,97812.19
2018-11-07T06:44:01.230Z,97812.69
2018-11-07T06:46:28.800Z,97811.86
2018-11-07T06:48:56.322Z,97814.34
2018-11-07T06:51:23.893Z,97824.25
2018-11-07T06:53:51.481Z,97832.47
2018-11-07T06:56:19.025Z,97833.83
2018-11-07T06:58:46.606Z,97832.98
2018-11-07T07:01:14.182Z,97834.82
2018-11-07T07:03:41.723Z,97834.32
2018-11-07T07:06:09.271Z,97835.48
2018-11-07T07:08:36.808Z,97841.55
2018-11-07T07:11:04.373Z,97840.02
2018-11-07T07:13:32.002Z,97844.55
2018-11-07T07:15:59.543Z,97850.58
2018-11-07T07:18:27.106Z,97847.23
2018-11-07T07:20:54.658Z,97849.91
2018-11-07T07:23:22.278Z,97850.25
2018-11-07T07:25:49.814Z,97851.61
2018-11-07T07:28:17.392Z,97846.07
2018-11-07T07:30:44.937Z,97848.74
2018-11-07T07:33:12.598Z,97842.05
2018-11-07T07:35:40.140Z,97848.25
2018-11-07T07:38:07.674Z,97843.20
2018-11-07T07:40:35.244Z,97846.91
2018-11-07T07:43:02.818Z,97844.22
2018-11-07T07:45:30.408Z,97843.72
2018-11-07T07:47:57.912Z,97840.02
2018-11-07T07:50:25.494Z,97836.17
2018-11-07T07:52:53.084Z,97830.12
2018-11-07T07:55:20.615Z,97837.99
2018-11-07T07:57:48.180Z,97836.00
2018-11-07T08:00:17.320Z,97835.47
2018-11-07T08:02:47.998Z,97844.37
2018-11-07T08:05:15.536Z,97837.16
2018-11-07T08:07:43.450Z,97837.83
2018-11-07T08:10:12.887Z,97840.71
2018-11-07T08:12:41.968Z,97837.48
2018-11-07T08:15:10.095Z,97839.52
2018-11-07T08:17:37.918Z,97845.70
2018-11-07T08:20:06.076Z,97842.20
2018-11-07T08:22:33.667Z,97844.24
2018-11-07T08:25:01.242Z,97843.37
2018-11-07T08:27:28.830Z,97845.22
2018-11-07T08:29:56.360Z,97844.57
2018-11-07T08:32:23.927Z,97834.81
2018-11-07T08:34:51.435Z,97834.13
2018-11-07T08:37:19.086Z,97833.13
2018-11-07T08:39:47.684Z,97831.63
2018-11-07T08:42:15.553Z,97827.09
2018-11-07T08:44:43.015Z,97821.05
2018-11-07T08:47:10.588Z,97825.74
2018-11-07T08:49:38.308Z,97831.11
2018-11-07T08:52:05.915Z,97827.25
2018-11-07T08:54:33.487Z,97831.95
2018-11-07T08:57:01.065Z,97828.26
2018-11-07T08:59:28.636Z,97835.29
2018-11-07T09:01:56.228Z,97828.73
2018-11-07T09:04:23.827Z,97827.58
2018-11-07T09:06:51.420Z,97828.42
2018-11-07T09:09:18.947Z,97833.80
2018-11-07T09:11:46.600Z,97836.30
2018-11-07T09:14:14.188Z,97838.15
2018-11-07T09:16:41.950Z,97841.33
2018-11-07T09:19:09.505Z,97840.48
2018-11-07T09:21:37.100Z,97839.31
2018-11-07T09:24:04.648Z,97846.35
2018-11-07T09:26:32.162Z,97846.84
2018-11-07T09:28:59.768Z,97848.19
2018-11-07T09:31:27.326Z,97845.50
2018-11-07T09:33:54.943Z,97837.80
2018-11-07T09:36:22.594Z,97835.77
2018-11-07T09:38:50.143Z,97837.94
2018-11-07T09:41:17.702Z,97832.90
2018-11-07T09:43:45.255Z,97829.37
2018-11-07T09:46:12.864Z,97830.04
2018-11-07T09:48:40.489Z,97829.01
2018-11-07T09:51:08.019Z,97826.01
2018-11-07T09:53:35.646Z,97820.09
2018-11-07T09:56:03.165Z,97821.25
2018-11-07T09:58:30.725Z,97823.41
2018-11-07T10:00:58.261Z,97831.13
2018-11-07T10:03:25.840Z,97826.59
2018-11-07T10:05:53.389Z,97825.26
2018-11-07T10:08:20.953Z,97817.22
2018-11-07T10:10:48.475Z,97817.06
2018-11-07T10:13:16.158Z,97813.87
2018-11-07T10:15:43.740Z,97806.97
2018-11-07T10:18:11.321Z,97806.47
2018-11-07T10:20:38.893Z,97802.94
2018-11-07T10:23:06.588Z,97794.88
2018-11-07T10:25:34.111Z,97799.56
2018-11-07T10:28:02.018Z,97794.20
2018-11-07T10:30:29.359Z,97792.02
2018-11-07T10:32:56.814Z,97791.85
2018-11-07T10:35:24.359Z,97784.64
2018-11-07T10:37:52.068Z,97775.05
2018-11-07T10:40:22.080Z,97780.42
2018-11-07T10:42:49.634Z,97784.11
2018-11-07T10:45:17.172Z,97775.05
2018-11-07T10:47:47.531Z,97776.39
2018-11-07T10:50:16.005Z,97777.20
2018-11-07T10:52:44.368Z,97782.39
2018-11-07T10:55:14.829Z,97776.52
2018-11-07T10:57:42.422Z,97771.14
2018-11-07T11:00:16.810Z,97778.52
2018-11-07T11:02:49.824Z,97780.17
2018-11-07T11:05:18.546Z,97772.27
2018-11-07T11:07:46.159Z,97771.95
2018-11-07T11:10:14.010Z,97765.89
2018-11-07T11:12:42.394Z,97774.11
2018-11-07T11:15:09.934Z,97771.42
2018-11-07T11:17:37.604Z,97769.05
2018-11-07T11:20:06.278Z,97767.01
2018-11-07T11:22:33.862Z,97764.32
2018-11-07T11:25:01.380Z,97766.35
2018-11-07T11:27:28.988Z,97768.01
2018-11-07T11:29:56.499Z,97769.70
2018-11-07T11:32:24.153Z,97762.13
2018-11-07T11:34:51.736Z,97771.34
2018-11-07T11:37:19.304Z,97761.94
2018-11-07T11:39:46.839Z,97761.25
2018-11-07T11:42:14.482Z,97764.05
2018-11-07T11:44:42.105Z,97763.24
2018-11-07T11:47:09.656Z,97760.17
2018-11-07T11:49:37.213Z,97751.95
2018-11-07T11:52:04.853Z,97750.26
2018-11-07T11:54:32.397Z,97744.54
2018-11-07T11:57:00.003Z,97746.88
2018-11-07T11:59:27.775Z,97744.00
2018-11-07T12:01:55.291Z,97741.95
2018-11-07T12:04:22.832Z,97737.58
2018-11-07T12:06:50.436Z,97742.26
2018-11-07T12:09:17.992Z,97740.72
2018-11-07T12:11:45.573Z,97740.05
2018-11-07T12:14:13.111Z,97740.36
2018-11-07T12:16:40.655Z,97740.16
2018-11-07T12:19:08.251Z,97740.31
2018-11-07T12:21:35.777Z,97737.56
2018-11-07T12:24:03.348Z,97735.68
2018-11-07T12:26:30.922Z,97730.09
2018-11-07T12:28:58.474Z,97729.20
2018-11-07T12:31:26.114Z,97724.11
2018-11-07T12:33:53.721Z,97724.09
2018-11-07T12:36:21.337Z,97721.66
2018-11-07T12:38:48.919Z,97724.84
2018-11-07T12:41:16.516Z,97723.80
2018-11-07T12:43:44.196Z,97719.59
2018-11-07T12:46:12.884Z,97720.05
2018-11-07T12:48:40.536Z,97718.54
2018-11-07T12:51:08.069Z,97725.02
2018-11-07T12:53:35.738Z,97724.16
2018-11-07T12:56:03.297Z,97730.67
2018-11-07T12:58:30.935Z,97726.91
2018-11-07T13:00:58.534Z,97732.58
2018-11-07T13:03:26.211Z,97731.38
2018-11-07T13:05:53.964Z,97731.86
2018-11-07T13:08:21.554Z,97723.72
2018-11-07T13:10:49.171Z,97727.70
2018-11-07T13:13:16.841Z,97729.27
2018-11-07T13:15:44.597Z,97727.70
2018-11-07T13:18:12.158Z,97734.64
2018-11-07T13:20:39.720Z,97736.23
2018-11-07T13:23:07.308Z,97737.72
2018-11-07T13:25:34.816Z,97738.84
2018-11-07T13:28:02.464Z,97745.17
2018-11-07T13:30:29.970Z,97739.25
2018-11-07T13:32:57.517Z,97746.42
2018-11-07T13:35:25.088Z,97739.18
2018-11-07T13:37:53.323Z,97743.49
2018-11-07T13:40:21.832Z,97749.53
2018-11-07T13:42:49.393Z,97744.27
2018-11-07T13:45:18.261Z,97748.45
2018-11-07T13:47:46.890Z,97753.44
2018-11-07T13:50:15.052Z,97754.22
2018-11-07T13:52:42.654Z,97752.86
2018-11-07T13:55:10.778Z,97761.22
2018-11-07T13:57:38.806Z,97756.80
2018-11-07T14:00:07.802Z,97754.95
2018-11-07T14:02:35.326Z,97754.03
2018-11-07T14:05:02.966Z,97756.73
2018-11-07T14:07:30.553Z,97762.84
2018-11-07T14:09:58.079Z,97763.17
2018-11-07T14:12:25.835Z,97772.91
2018-11-07T14:14:54.471Z,97774.40
2018-11-07T14:17:22.029Z,97780.64
2018-11-07T14:19:49.573Z,97781.64
2018-11-07T14:22:17.267Z,97790.05
2018-11-07T14:24:44.782Z,97793.25
2018-11-07T14:27:12.341Z,97797.56
2018-11-07T14:29:39.918Z,97803.36
2018-11-07T14:32:07.521Z,97805.62
2018-11-07T14:34:35.061Z,97812.80
2018-11-07T14:37:02.672Z,97815.36
2018-11-07T14:39:30.279Z,97810.47
2018-11-07T14:41:57.837Z,97815.50
2018-11-07T14:44:25.368Z,97816.34
2018-11-07T14:46:53.012Z,97817.69
2018-11-07T14:49:20.517Z,97812.42
2018-11-07T14:51:48.227Z,97812.16
2018-11-07T14:54:15.848Z,97814.86
2018-11-07T14:56:43.351Z,97814.48
2018-11-07T14:59:11.057Z,97816.80
2018-11-07T15:01:38.646Z,97820.41
2018-11-07T15:04:06.182Z,97827.33
2018-11-07T15:06:33.960Z,97827.15
2018-11-07T15:09:01.568Z,97828.22
2018-11-07T15:11:29.221Z,97828.58
2018-11-07T15:13:56.703Z,97824.67
2018-11-07T15:16:24.244Z,97827.65
2018-11-07T15:18:51.827Z,97838.73
2018-11-07T15:21:19.451Z,97843.27
2018-11-07T15:23:47.043Z,97843.71
2018-11-07T15:26:14.849Z,97844.61
2018-11-07T15:28:42.391Z,97847.95
2018-11-07T15:31:09.965Z,97854.55
2018-11-07T15:33:37.580Z,97858.94
2018-11-07T15:36:05.155Z,97858.59
2018-11-07T15:38:33.299Z,97859.30
2018-11-07T15:41:01.938Z,97857.95
2018-11-07T15:43:29.537Z,97862.86
2018-11-07T15:45:57.132Z,97865.30
2018-11-07T15:48:27.012Z,97876.22
2018-11-07T15:50:59.759Z,97871.51
2018-11-07T15:53:27.353Z,97881.80
2018-11-07T15:55:54.980Z,97895.08
2018-11-07T15:58:22.678Z,97892.08
2018-11-07T16:00:52.246Z,97893.59
2018-11-07T16:03:25.202Z,97898.67
2018-11-07T16:05:52.910Z,97896.89
2018-11-07T16:08:20.492Z,97900.73
2018-11-07T16:10:48.157Z,97902.23
2018-11-07T16:13:15.735Z,97909.28
2018-11-07T16:15:43.299Z,97911.14
2018-11-07T16:18:10.803Z,97916.89
2018-11-07T16:20:38.347Z,97915.58
2018-11-07T16:23:05.993Z,97920.59
2018-11-07T16:25:33.638Z,97918.22
2018-11-07T16:28:01.226Z,97923.42
2018-11-07T16:30:28.978Z,97929.16
2018-11-07T16:32:56.622Z,97931.91
2018-11-07T16:35:24.180Z,97926.94
2018-11-07T16:37:51.924Z,97943.36
2018-11-07T16:40:19.711Z,97945.42
2018-11-07T16:42:47.290Z,97946.65
2018-11-07T16:45:15.957Z,97950.07
2018-11-07T16:47:43.777Z,97953.66
2018-11-07T16:50:12.347Z,97947.11
2018-11-07T16:52:39.982Z,97950.67
2018-11-07T16:55:07.897Z,97954.67
2018-11-07T16:57:36.020Z,97959.17
2018-11-07T17:00:03.846Z,97964.86
2018-11-07T17:02:31.404Z,97965.95
2018-11-07T17:04:59.009Z,97969.09
2018-11-07T17:07:26.569Z,97974.23
2018-11-07T17:09:54.131Z,97981.09
2018-11-07T17:12:21.695Z,97989.13
2018-11-07T17:14:49.332Z,97992.80
2018-11-07T17:17:16.862Z,98001.39
2018-11-07T17:19:44.453Z,98002.33
2018-11-07T17:22:12.061Z,98000.70
2018-11-07T17:24:39.750Z,98002.20
2018-11-07T17:27:07.223Z,98005.98
2018-11-07T17:29:34.782Z,98012.14
2018-11-07T17:32:02.538Z,98016.55
2018-11-07T17:34:30.058Z,98022.83
2018-11-07T17:36:57.654Z,98028.92
2018-11-07T17:39:25.286Z,98030.67
2018-11-07T17:41:52.872Z,98040.75
2018-11-07T17:44:20.434Z,98040.91
2018-11-07T17:46:48.022Z,98048.44
2018-11-07T17:49:15.627Z,98045.11
2018-11-07T17:51:43.303Z,98047.66
2018-11-07T17:54:10.827Z,98048.00
2018-11-07T17:56:38.566Z,98053.47
2018-11-07T17:59:06.009Z,98059.56
2018-11-07T18:01:33.576Z,98057.05
2018-11-07T18:04:01.280Z,98059.11
2018-11-07T18:06:28.782Z,98063.67
2018-11-07T18:08:56.363Z,98068.73
2018-11-07T18:11:23.942Z,98062.03
2018-11-07T18:13:51.615Z,98067.61
2018-11-07T18:16:19.180Z,98062.41
2018-11-07T18:18:46.828Z,98079.23
2018-11-07T18:21:14.393Z,98079.58
2018-11-07T18:23:42.139Z,98081.80
2018-11-07T18:26:09.740Z,98089.25
2018-11-07T18:28:37.298Z,98088.54
2018-11-07T18:31:04.934Z,98091.92
2018-11-07T18:33:32.463Z,98097.35
2018-11-07T18:36:00.087Z,98097.73
2018-11-07T18:38:27.594Z,98091.58
2018-11-07T18:40:55.107Z,98095.94
2018-11-07T18:43:22.625Z,98097.02
2018-11-07T18:45:50.306Z,98107.39
2018-11-07T18:48:17.891Z,98108.88
2018-11-07T18:50:45.554Z,98115.94
2018-11-07T18:53:13.144Z,98119.53
2018-11-07T18:55:40.654Z,98123.58
2018-11-07T18:58:08.228Z,98131.24
2018-11-07T19:00:35.862Z,98130.80
2018-11-07T19:03:03.445Z,98136.08
2018-11-07T19:05:31.113Z,98134.55
2018-11-07T19:07:58.719Z,98139.68
2018-11-07T19:10:26.334Z,98140.83
2018-11-07T19:12:53.946Z,98144.06
2018-11-07T19:15:21.597Z,98142.22
2018-11-07T19:17:50.172Z,98151.70
2018-11-07T19:20:18.099Z,98154.29
2018-11-07T19:22:45.673Z,98153.22
2018-11-07T19:25:14.575Z,98159.17
2018-11-07T19:27:43.118Z,98157.80
2018-11-07T19:30:13.109Z,98161.49
2018-11-07T19:32:40.908Z,98170.23
2018-11-07T19:35:09.628Z,98171.49
2018-11-07T19:37:37.361Z,98172.36
2018-11-07T19:40:05.583Z,98172.04
2018-11-07T19:42:33.055Z,98178.63
2018-11-07T19:45:00.609Z,98185.21
2018-11-07T19:47:28.148Z,98187.59
2018-11-07T19:49:55.655Z,98194.15
2018-11-07T19:52:23.171Z,98193.14
2018-11-07T19:54:50.912Z,98187.09
2018-11-07T19:57:18.568Z,98198.19
2018-11-07T19:59:46.449Z,98190.95
2018-11-07T20:02:13.965Z,98195.02
2018-11-07T20:04:41.507Z,98197.48
2018-11-07T20:07:09.140Z,98199.86
2018-11-07T20:09:36.760Z,98201.87
2018-11-07T20:12:04.324Z,98209.28
2018-11-07T20:14:35.928Z,98208.95
2018-11-07T20:17:03.643Z,98213.83
2018-11-07T20:19:31.144Z,98207.93
2018-11-07T20:21:58.719Z,98217.84
2018-11-07T20:24:27.334Z,98232.48
2018-11-07T20:26:54.855Z,98238.52
2018-11-07T20:29:22.480Z,98229.29
2018-11-07T20:31:50.108Z,98236.50
2018-11-07T20:34:17.732Z,98237.16
2018-11-07T20:36:45.432Z,98244.41
2018-11-07T20:39:13.699Z,98244.06
2018-11-07T20:41:41.858Z,98240.20
2018-11-07T20:44:10.082Z,98242.55
2018-11-07T20:46:37.936Z,98242.20
2018-11-07T20:49:05.700Z,98247.09
2018-11-07T20:51:38.663Z,98256.68
2018-11-07T20:54:07.242Z,98248.60
2018-11-07T20:56:34.874Z,98250.63
2018-11-07T20:59:02.547Z,98251.12
2018-11-07T21:01:30.115Z,98250.28
2018-11-07T21:03:57.828Z,98258.88
2018-11-07T21:06:25.348Z,98257.50
2018-11-07T21:08:52.894Z,98266.41
2018-11-07T21:11:20.533Z,98271.97
2018-11-07T21:13:48.160Z,98269.61
2018-11-07T21:16:15.885Z,98273.81
2018-11-07T21:18:43.442Z,98276.65
2018-11-07T21:21:10.987Z,98276.16
2018-11-07T21:23:38.559Z,98278.52
2018-11-07T21:26:06.132Z,98284.04
2018-11-07T21:28:33.732Z,98282.88
2018-11-07T21:31:01.321Z,98289.77
2018-11-07T21:33:28.895Z,98292.95
2018-11-07T21:35:56.468Z,98303.36
2018-11-07T21:38:26.257Z,98302.02
2018-11-07T21:40:53.902Z,98304.84
2018-11-07T21:43:21.511Z,98310.22
2018-11-07T21:45:49.088Z,98311.06
2018-11-07T21:48:16.744Z,98312.77
2018-11-07T21:50:45.171Z,98312.77
2018-11-07T21:53:12.805Z,98316.13
2018-11-07T21:55:40.483Z,98314.92
2018-11-07T21:58:09.077Z,98321.33
2018-11-07T22:00:37.766Z,98325.50
2018-11-07T22:03:05.596Z,98325.84
2018-11-07T22:05:33.227Z,98327.20
2018-11-07T22:08:00.905Z,98327.87
2018-11-07T22:10:28.468Z,98326.84
2018-11-07T22:12:56.119Z,98325.32
2018-11-07T22:15:23.639Z,98328.19
2018-11-07T22:17:51.231Z,98331.90
2018-11-07T22:20:20.192Z,98336.25
2018-11-07T22:22:47.813Z,98330.88
2018-11-07T22:25:15.558Z,98329.03
2018-11-07T22:27:43.205Z,98327.68
2018-11-07T22:30:12.100Z,98328.14
2018-11-07T22:32:40.069Z,98325.98
2018-11-07T22:35:08.525Z,98335.57
2018-11-07T22:37:36.331Z,98339.95
2018-11-07T22:40:03.957Z,98345.61
2018-11-07T22:42:31.492Z,98350.17
2018-11-07T22:44:59.204Z,98351.30
2018-11-07T22:47:26.837Z,98353.31
2018-11-07T22:49:54.427Z,98355.37
2018-11-07T22:52:22.029Z,98359.23
2018-11-07T22:54:49.630Z,98361.11
2018-11-07T22:57:17.232Z,98362.95
2018-11-07T22:59:44.867Z,98366.66
2018-11-07T23:02:12.444Z,98361.78
2018-11-07T23:04:40.022Z,98357.89
2018-11-07T23:07:07.572Z,98368.45
2018-11-07T23:09:35.164Z,98360.08
2018-11-07T23:12:02.752Z,98360.11
2018-11-07T23:14:30.404Z,98360.43
2018-11-07T23:16:59.003Z,98359.05
2018-11-07T23:19:26.691Z,98361.56
2018-11-07T23:21:54.273Z,98358.02
2018-11-07T23:24:21.879Z,98364.42
2018-11-07T23:26:49.472Z,98353.86
2018-11-07T23:29:17.031Z,98361.87
2018-11-07T23:31:44.579Z,98365.04
2018-11-07T23:34:12.171Z,98369.39
2018-11-07T23:36:39.727Z,98370.42
2018-11-07T23:39:07.935Z,98375.13
2018-11-07T23:41:35.520Z,98384.33
2018-11-07T23:44:03.395Z,98388.87
2018-11-07T23:46:30.978Z,98390.08
2018-11-07T23:48:58.563Z,98393.73
2018-11-07T23:51:26.151Z,98390.88
2018-11-07T23:53:53.713Z,98392.72
2018-11-07T23:56:21.288Z,98392.90
2018-11-07T23:58:49.132Z,98393.73
